Time;durP1;ratioP1;P1;durP2;ratioP2;P2;SDS_P1;SDS_P2;PMS_P1;PMS_P2;Temp;Humidity;BMP_temperature;BMP_pressure;BME280_temperature;BME280_humidity;BME280_pressure;Samples;Min_cycle;Max_cycle;Signal;HPM_P1;HPM_P2
2024/04/02 00:00:40;;;;;;;1999.90;999.90;;;10.00;91.40;;;;;;6156362;23;20154;-77
2024/04/02 00:03:08;;;;;;;1999.90;999.90;;;10.00;91.40;;;;;;6156459;23;20152;-78
2024/04/02 00:05:34;;;;;;;1999.90;999.67;;;10.00;91.40;;;;;;6130043;23;20506;-78
2024/04/02 00:08:02;;;;;;;1999.90;999.90;;;10.00;91.40;;;;;;6129370;23;20607;-79
2024/04/02 00:10:28;;;;;;;1999.90;999.90;;;10.00;91.40;;;;;;6129568;23;20191;-78
2024/04/02 00:12:54;;;;;;;1999.90;999.90;;;10.00;91.40;;;;;;6155975;23;20169;-78
2024/04/02 00:15:20;;;;;;;1999.90;979.63;;;10.00;91.40;;;;;;6155947;23;20484;-78
2024/04/02 00:17:45;;;;;;;1999.90;999.90;;;10.00;91.40;;;;;;6155224;23;20150;-78
2024/04/02 00:20:11;;;;;;;1999.90;999.90;;;9.90;91.40;;;;;;6129913;23;20187;-78
2024/04/02 00:22:38;;;;;;;1999.90;965.30;;;9.90;91.50;;;;;;6155938;23;20176;-78
2024/04/02 00:25:04;;;;;;;1999.90;999.90;;;9.90;91.50;;;;;;6130000;23;20164;-77
2024/04/02 00:27:31;;;;;;;1999.90;999.90;;;9.90;91.60;;;;;;6129359;23;20165;-78
2024/04/02 00:29:57;;;;;;;1999.90;997.77;;;9.90;91.70;;;;;;6156012;23;20152;-77
2024/04/02 00:32:22;;;;;;;1999.90;930.10;;;9.90;91.80;;;;;;6129928;23;20515;-79
2024/04/02 00:34:48;;;;;;;1900.00;970.63;;;9.90;91.80;;;;;;6156037;23;20162;-79
2024/04/02 00:37:14;;;;;;;1999.90;955.20;;;9.90;91.80;;;;;;6154949;23;20163;-78
2024/04/02 00:39:42;;;;;;;1999.90;975.73;;;9.90;91.80;;;;;;6155992;23;20153;-78
2024/04/02 00:42:07;;;;;;;1999.90;999.90;;;9.90;91.80;;;;;;6155932;23;20190;-78
2024/04/02 00:44:34;;;;;;;1999.90;999.90;;;9.90;91.90;;;;;;6129881;23;20550;-78
2024/04/02 00:47:00;;;;;;;1999.90;999.90;;;9.90;91.90;;;;;;6155013;23;20156;-78
2024/04/02 00:49:26;;;;;;;1999.90;921.43;;;9.90;91.80;;;;;;6129814;23;20159;-78
2024/04/02 00:51:52;;;;;;;1999.90;999.90;;;9.90;91.80;;;;;;6129646;23;20511;-78
2024/04/02 00:54:19;;;;;;;1999.90;969.93;;;9.90;91.80;;;;;;6155735;23;20222;-78
2024/04/02 00:56:44;;;;;;;1999.90;876.70;;;9.90;91.90;;;;;;6128895;23;20151;-78
2024/04/02 00:59:11;;;;;;;1999.90;922.33;;;9.90;91.90;;;;;;6129735;23;20157;-78
2024/04/02 01:01:37;;;;;;;1999.90;999.90;;;9.90;92.00;;;;;;6155714;23;20260;-78
2024/04/02 01:04:04;;;;;;;1999.90;999.90;;;9.90;92.00;;;;;;6155749;23;20232;-78
2024/04/02 01:06:30;;;;;;;1999.90;808.20;;;10.00;92.10;;;;;;6155136;23;20229;-78
2024/04/02 01:08:55;;;;;;;1999.90;842.73;;;10.00;92.10;;;;;;6129496;23;20164;-78
2024/04/02 01:11:22;;;;;;;1999.90;999.90;;;10.00;92.10;;;;;;6156723;23;20641;-79
2024/04/02 01:13:48;;;;;;;1900.90;834.57;;;10.10;92.20;;;;;;6132825;23;20145;-78
2024/04/02 01:16:17;;;;;;;1999.90;809.70;;;10.20;92.10;;;;;;6131486;23;20164;-78
2024/04/02 01:18:47;;;;;;;1999.90;999.90;;;10.20;92.20;;;;;;6158829;23;20195;-78
2024/04/02 01:21:13;;;;;;;1999.90;999.90;;;10.20;92.10;;;;;;6133781;23;20180;-79
2024/04/02 01:23:39;;;;;;;1999.90;999.90;;;10.20;92.10;;;;;;6160528;23;20164;-79
2024/04/02 01:26:05;;;;;;;1999.90;999.90;;;10.20;92.10;;;;;;6159719;23;20152;-78
2024/04/02 01:28:30;;;;;;;1999.90;936.03;;;10.20;92.10;;;;;;6160905;23;20212;-78
2024/04/02 01:30:56;;;;;;;1999.90;999.90;;;10.20;92.10;;;;;;6160320;23;20208;-78
2024/04/02 01:33:21;;;;;;;1999.90;999.90;;;10.30;92.20;;;;;;6160289;23;20185;-79
2024/04/02 01:35:47;;;;;;;1999.90;999.90;;;10.30;92.10;;;;;;6134510;23;20640;-79
2024/04/02 01:38:13;;;;;;;1999.90;999.90;;;10.30;92.10;;;;;;6134049;23;20163;-79
2024/04/02 01:40:38;;;;;;;1999.90;999.90;;;10.40;92.20;;;;;;6160157;23;20179;-78
2024/04/02 01:43:05;;;;;;;1999.90;999.90;;;10.40;92.10;;;;;;6160904;23;20183;-78
2024/04/02 01:45:31;;;;;;;1999.90;999.90;;;10.40;92.10;;;;;;6160200;23;20164;-79
2024/04/02 01:47:57;;;;;;;1999.90;999.90;;;10.50;92.10;;;;;;6132598;23;20165;-79
2024/04/02 01:50:23;;;;;;;1999.90;999.90;;;10.50;92.10;;;;;;6133738;23;20187;-78
2024/04/02 01:52:48;;;;;;;1999.90;852.53;;;10.50;92.10;;;;;;6160037;23;20222;-79
2024/04/02 01:55:14;;;;;;;1999.90;999.90;;;10.60;92.00;;;;;;6134158;23;20670;-79
2024/04/02 01:57:40;;;;;;;1999.90;999.90;;;10.60;92.00;;;;;;6159672;23;20149;-78
2024/04/02 02:00:06;;;;;;;1999.90;986.47;;;10.60;92.00;;;;;;6133903;23;20244;-79
2024/04/02 02:02:32;;;;;;;1999.90;999.90;;;10.60;92.00;;;;;;6159800;23;20191;-79
2024/04/02 02:04:57;;;;;;;1999.90;964.57;;;10.60;92.10;;;;;;6159853;23;20158;-79
2024/04/02 02:07:23;;;;;;;1999.90;935.33;;;10.60;92.00;;;;;;6133346;23;20166;-79
2024/04/02 02:09:49;;;;;;;1999.90;944.67;;;10.60;92.10;;;;;;6159695;23;20160;-79
2024/04/02 02:12:14;;;;;;;1999.90;999.90;;;10.60;92.10;;;;;;6159499;23;20184;-80
2024/04/02 02:14:40;;;;;;;1999.90;936.03;;;10.60;92.10;;;;;;6133456;23;20196;-78
2024/04/02 02:17:06;;;;;;;1999.90;999.90;;;10.60;92.20;;;;;;6133130;23;20158;-78
2024/04/02 02:19:31;;;;;;;1999.90;999.90;;;10.60;92.20;;;;;;6133714;23;20227;-78
2024/04/02 02:21:57;;;;;;;1999.90;999.90;;;10.60;92.20;;;;;;6159792;23;20848;-79
2024/04/02 02:24:23;;;;;;;1999.90;807.63;;;10.60;92.20;;;;;;6159783;23;20168;-79
2024/04/02 02:26:50;;;;;;;1999.90;999.90;;;10.60;92.20;;;;;;6158574;23;20153;-79
2024/04/02 02:29:16;;;;;;;1999.90;999.90;;;10.60;92.20;;;;;;6159224;23;20615;-78
2024/04/02 02:31:41;;;;;;;1999.90;804.07;;;10.60;92.20;;;;;;6159108;23;20646;-78
2024/04/02 02:34:07;;;;;;;1999.90;862.57;;;10.60;92.30;;;;;;6133005;23;20164;-78
2024/04/02 02:36:33;;;;;;;1999.90;999.90;;;10.60;92.30;;;;;;6158983;23;20525;-78
2024/04/02 02:38:58;;;;;;;1999.90;772.97;;;10.60;92.30;;;;;;6159305;23;20176;-79
2024/04/02 02:41:24;;;;;;;1999.90;903.63;;;10.60;92.30;;;;;;6159227;23;20184;-78
2024/04/02 02:43:49;;;;;;;1999.90;999.90;;;10.60;92.30;;;;;;6159800;23;20152;-79
2024/04/02 02:46:15;;;;;;;1999.90;999.90;;;10.60;92.30;;;;;;6132452;23;20201;-79
2024/04/02 02:48:41;;;;;;;1999.90;999.90;;;10.60;92.30;;;;;;6159758;23;20491;-79
2024/04/02 02:51:06;;;;;;;1999.90;900.00;;;10.60;92.40;;;;;;6133636;23;20193;-77
2024/04/02 02:53:32;;;;;;;1999.90;999.90;;;10.70;92.40;;;;;;6159855;23;20153;-79
2024/04/02 02:56:00;;;;;;;1898.43;842.90;;;10.70;92.30;;;;;;6159258;23;20182;-79
2024/04/02 02:58:26;;;;;;;1999.90;999.90;;;10.70;92.30;;;;;;6134177;23;20614;-79
2024/04/02 03:00:52;;;;;;;1999.90;999.90;;;10.70;92.40;;;;;;6159861;23;20612;-79
2024/04/02 03:03:18;;;;;;;1999.90;999.90;;;10.70;92.40;;;;;;6134103;23;20212;-78
2024/04/02 03:05:54;;;;;;;1999.90;999.90;;;10.70;92.40;;;;;;6133026;23;20165;-78
2024/04/02 03:08:21;;;;;;;1999.90;999.90;;;10.70;92.50;;;;;;6132639;23;20153;-79
2024/04/02 03:11:01;;;;;;;1999.90;999.90;;;10.70;92.50;;;;;;6132311;23;20561;-79
2024/04/02 03:13:27;;;;;;;1999.90;999.90;;;10.70;92.60;;;;;;6133068;23;20158;-79
2024/04/02 03:15:53;;;;;;;1999.90;999.90;;;10.70;92.60;;;;;;6133556;23;20160;-79
2024/04/02 03:18:19;;;;;;;1999.90;999.90;;;10.70;92.70;;;;;;6132747;23;20227;-79
2024/04/02 03:20:44;;;;;;;1999.90;999.90;;;10.70;92.70;;;;;;6133075;23;20165;-79
2024/04/02 03:23:10;;;;;;;1999.90;999.90;;;10.70;92.70;;;;;;6159366;23;20204;-79
2024/04/02 03:25:37;;;;;;;1999.90;620.13;;;10.70;92.70;;;;;;6159586;23;20188;-78
2024/04/02 03:28:03;;;;;;;1970.47;781.17;;;10.70;92.80;;;;;;6158477;23;20154;-78
2024/04/02 03:30:29;;;;;;;1999.90;999.90;;;10.70;92.80;;;;;;6159038;23;20181;-78
2024/04/02 03:32:54;;;;;;;1999.90;999.90;;;10.70;92.80;;;;;;6158859;23;20236;-79
2024/04/02 03:35:20;;;;;;;1999.90;999.90;;;10.70;92.90;;;;;;6132960;23;20496;-78
2024/04/02 03:37:46;;;;;;;1999.90;999.90;;;10.70;92.90;;;;;;6132365;23;20168;-79
2024/04/02 03:40:12;;;;;;;1999.90;999.90;;;10.70;92.90;;;;;;6159149;23;20619;-79
2024/04/02 03:42:37;;;;;;;1999.90;999.90;;;10.70;93.00;;;;;;6158512;23;20818;-79
2024/04/02 03:45:05;;;;;;;1999.90;999.90;;;10.70;93.00;;;;;;6159051;23;20174;-78
2024/04/02 03:47:30;;;;;;;1999.90;999.90;;;10.70;93.00;;;;;;6158505;23;20527;-78
2024/04/02 03:49:56;;;;;;;1999.90;999.90;;;10.70;93.10;;;;;;6132163;23;20158;-79
2024/04/02 03:52:22;;;;;;;1999.90;999.90;;;10.70;93.10;;;;;;6158780;23;20224;-79
2024/04/02 03:54:48;;;;;;;1999.90;999.90;;;10.60;93.10;;;;;;6158750;23;20625;-79
2024/04/02 03:57:13;;;;;;;1999.90;999.90;;;10.60;93.20;;;;;;6131913;23;20181;-79
2024/04/02 03:59:39;;;;;;;1999.90;999.90;;;10.70;93.20;;;;;;6132855;23;20164;-79
2024/04/02 04:02:05;;;;;;;1999.90;999.90;;;10.70;93.50;;;;;;6158722;23;20622;-79
2024/04/02 04:04:31;;;;;;;1999.90;999.90;;;10.70;93.20;;;;;;6158746;23;20164;-79
2024/04/02 04:06:56;;;;;;;1999.90;999.90;;;10.70;93.20;;;;;;6131892;23;20161;-82
2024/04/02 04:09:23;;;;;;;1999.90;999.90;;;10.70;93.20;;;;;;6132173;23;20190;-78
2024/04/02 04:11:50;;;;;;;1999.90;500.80;;;10.60;93.20;;;;;;6157792;23;20187;-79
2024/04/02 04:14:16;;;;;;;1999.90;999.90;;;10.60;93.20;;;;;;6157870;23;20590;-79
2024/04/02 04:16:41;;;;;;;1999.90;999.90;;;10.60;93.20;;;;;;6157982;23;20152;-78
2024/04/02 04:19:07;;;;;;;1999.90;999.90;;;10.60;93.20;;;;;;6132337;23;20160;-80
2024/04/02 04:21:33;;;;;;;1999.90;999.90;;;10.70;93.20;;;;;;6132372;23;20670;-80
2024/04/02 04:23:58;;;;;;;1890.60;421.70;;;10.60;93.10;;;;;;6131826;23;20157;-80
2024/04/02 04:26:24;;;;;;;1999.90;999.90;;;10.60;93.20;;;;;;6156865;23;20164;-79
2024/04/02 04:28:50;;;;;;;1999.90;999.90;;;10.60;93.10;;;;;;6157859;23;20180;-80
2024/04/02 04:31:15;;;;;;;1999.90;999.90;;;10.60;93.10;;;;;;6131670;23;20195;-79
2024/04/02 04:33:41;;;;;;;1999.90;999.90;;;10.60;93.00;;;;;;6132012;23;20160;-79
2024/04/02 04:36:06;;;;;;;1999.90;999.90;;;10.50;93.00;;;;;;6131358;23;20160;-79
2024/04/02 04:38:32;;;;;;;1999.90;999.90;;;10.50;93.10;;;;;;6131677;23;20168;-79
2024/04/02 04:40:58;;;;;;;1999.90;999.90;;;10.50;93.10;;;;;;6132433;23;20645;-80
2024/04/02 04:43:24;;;;;;;1999.90;999.90;;;10.50;93.20;;;;;;6133061;23;20172;-79
2024/04/02 04:45:54;;;;;;;1974.60;653.77;;;10.40;93.20;;;;;;6158591;23;20593;-79
2024/04/02 04:48:19;;;;;;;1999.90;999.90;;;10.40;93.30;;;;;;6131989;23;20216;-79
2024/04/02 04:50:59;;;;;;;1999.90;999.90;;;10.40;93.30;;;;;;6132201;23;20197;-79
2024/04/02 04:53:25;;;;;;;1999.90;999.90;;;10.40;93.40;;;;;;6159244;23;20148;-79
2024/04/02 04:55:50;;;;;;;1999.90;999.90;;;10.40;93.40;;;;;;6132353;23;20595;-79
2024/04/02 04:58:16;;;;;;;1999.90;999.90;;;10.40;93.50;;;;;;6158115;23;20157;-79
2024/04/02 05:00:43;;;;;;;1852.53;779.20;;;10.40;93.50;;;;;;6132340;23;20248;-79
2024/04/02 05:03:09;;;;;;;1999.90;999.90;;;10.50;93.50;;;;;;6158719;23;20159;-79
2024/04/02 05:05:35;;;;;;;1314.60;407.57;;;10.50;93.40;;;;;;6157820;23;20153;-79
2024/04/02 05:08:22;;;;;;;1999.90;999.90;;;10.50;93.50;;;;;;6132600;23;20171;-79
2024/04/02 05:10:49;;;;;;;1999.90;999.90;;;10.40;93.60;;;;;;6134187;23;20512;-78
2024/04/02 05:13:16;;;;;;;1922.17;770.23;;;10.50;93.60;;;;;;6130370;23;20177;-78
2024/04/02 05:15:43;;;;;;;1999.90;999.90;;;10.50;93.70;;;;;;6129649;23;20507;-78
2024/04/02 05:18:09;;;;;;;1999.90;629.20;;;10.50;93.80;;;;;;6129136;23;20156;-78
2024/04/02 05:20:35;;;;;;;1914.27;772.40;;;10.50;93.80;;;;;;6129971;23;20172;-78
2024/04/02 05:23:01;;;;;;;1999.90;999.90;;;10.50;93.90;;;;;;6131119;23;20178;-78
2024/04/02 05:25:27;;;;;;;1999.90;999.90;;;10.50;93.90;;;;;;6129863;23;20626;-78
2024/04/02 05:27:53;;;;;;;1999.90;999.90;;;10.50;93.90;;;;;;6130491;23;20201;-78
2024/04/02 05:30:19;;;;;;;1999.90;999.90;;;10.50;93.90;;;;;;6130202;23;20186;-78
2024/04/02 05:32:44;;;;;;;1794.10;746.50;;;10.50;93.90;;;;;;6129090;23;20186;-78
2024/04/02 05:35:10;;;;;;;1999.90;999.90;;;10.60;94.00;;;;;;6130600;23;20149;-78
2024/04/02 05:37:36;;;;;;;1999.90;999.90;;;10.60;93.90;;;;;;6128298;23;20158;-78
2024/04/02 05:40:05;;;;;;;1999.90;999.90;;;10.60;93.90;;;;;;6130606;23;20194;-78
2024/04/02 05:42:31;;;;;;;1999.90;999.90;;;10.60;93.90;;;;;;6131380;23;20230;-79
2024/04/02 05:44:57;;;;;;;1999.90;999.90;;;10.60;93.90;;;;;;6129321;23;20234;-80
2024/04/02 05:47:23;;;;;;;1999.90;999.90;;;10.60;93.90;;;;;;6128374;23;20159;-78
2024/04/02 05:49:49;;;;;;;1999.90;999.90;;;10.60;93.90;;;;;;6129702;23;20155;-78
2024/04/02 05:52:16;;;;;;;1999.90;999.90;;;10.60;93.90;;;;;;6129850;23;20178;-78
2024/04/02 05:54:42;;;;;;;1999.90;999.90;;;10.60;93.90;;;;;;6129577;23;20571;-78
2024/04/02 05:57:08;;;;;;;1999.90;999.90;;;10.60;93.90;;;;;;6130187;23;20235;-79
2024/04/02 05:59:33;;;;;;;1999.90;999.90;;;10.60;93.90;;;;;;6131523;23;20185;-78
2024/04/02 06:01:59;;;;;;;1999.90;999.90;;;10.60;93.90;;;;;;6129167;23;20175;-78
2024/04/02 06:04:25;;;;;;;1999.90;999.90;;;10.60;93.90;;;;;;6129471;23;20164;-78
2024/04/02 06:06:50;;;;;;;1999.90;681.53;;;10.70;93.90;;;;;;6131961;23;20481;-78
2024/04/02 06:09:19;;;;;;;1999.90;818.90;;;10.60;93.90;;;;;;6132716;23;20150;-78
2024/04/02 06:11:44;;;;;;;1999.90;999.90;;;10.70;93.90;;;;;;6130824;23;20203;-79
2024/04/02 06:14:10;;;;;;;1999.90;843.73;;;10.70;93.80;;;;;;6133122;23;20213;-78
2024/04/02 06:16:35;;;;;;;1999.90;999.90;;;10.70;93.80;;;;;;6132063;23;20168;-79
2024/04/02 06:19:01;;;;;;;1999.90;999.90;;;10.70;93.70;;;;;;6130972;23;20192;-78
2024/04/02 06:21:27;;;;;;;1999.90;999.90;;;10.80;93.70;;;;;;6130897;23;20182;-80
2024/04/02 06:23:53;;;;;;;1999.90;999.90;;;10.90;93.70;;;;;;6130776;23;20253;-78
2024/04/02 06:26:19;;;;;;;1999.90;999.90;;;11.00;93.60;;;;;;6130841;23;20163;-79
2024/04/02 06:28:44;;;;;;;1999.90;945.07;;;11.10;93.30;;;;;;6131655;23;20176;-78
2024/04/02 06:31:10;;;;;;;1999.90;999.90;;;11.20;93.20;;;;;;6132576;23;20185;-78
2024/04/02 06:33:36;;;;;;;1999.90;860.97;;;11.20;93.10;;;;;;6133254;23;20145;-79
2024/04/02 06:36:02;;;;;;;1999.90;949.93;;;11.30;93.10;;;;;;6132285;23;20462;-78
2024/04/02 06:38:28;;;;;;;1999.90;837.53;;;11.50;93.00;;;;;;6132300;23;20159;-78
2024/04/02 06:40:53;;;;;;;1999.90;999.90;;;11.70;92.80;;;;;;6131272;23;20685;-80
2024/04/02 06:43:19;;;;;;;1999.90;998.87;;;11.80;92.60;;;;;;6131183;23;20167;-78
2024/04/02 06:45:59;;;;;;;1999.90;999.90;;;11.90;92.40;;;;;;6131931;23;20157;-78
2024/04/02 06:48:25;;;;;;;1999.90;999.90;;;12.10;92.20;;;;;;6131063;23;20608;-78
2024/04/02 06:51:02;;;;;;;1999.90;999.90;;;12.20;91.70;;;;;;6131089;23;20190;-78
2024/04/02 06:53:28;;;;;;;1999.90;999.90;;;12.30;91.80;;;;;;6131119;23;20155;-78
2024/04/02 06:55:54;;;;;;;1999.90;999.90;;;12.40;91.50;;;;;;6130296;23;20155;-78
2024/04/02 06:58:21;;;;;;;1999.90;999.90;;;12.50;91.20;;;;;;6130211;23;20214;-79
2024/04/02 07:00:47;;;;;;;1999.90;999.90;;;12.50;90.90;;;;;;6130503;23;20185;-78
2024/04/02 07:03:18;;;;;;;1999.90;999.90;;;12.70;90.80;;;;;;6130668;23;20159;-78
2024/04/02 07:05:44;;;;;;;1999.90;991.53;;;12.80;90.70;;;;;;6130097;23;20161;-79
2024/04/02 07:08:10;;;;;;;1999.90;802.17;;;13.00;90.30;;;;;;6131259;23;20158;-79
2024/04/02 07:10:36;;;;;;;1999.90;893.03;;;13.10;90.30;;;;;;6131075;23;20179;-80
2024/04/02 07:13:02;;;;;;;1367.83;307.60;;;13.20;90.10;;;;;;6130891;23;20631;-78
2024/04/02 07:15:28;;;;;;;1999.90;999.90;;;13.30;90.00;;;;;;6131077;23;20162;-79
2024/04/02 07:17:54;;;;;;;917.83;390.60;;;13.50;89.60;;;;;;6131659;23;20238;-79
2024/04/02 07:20:22;;;;;;;1999.90;999.90;;;13.60;89.20;;;;;;6131355;23;20597;-79
2024/04/02 07:22:47;;;;;;;1999.90;999.90;;;13.70;88.70;;;;;;6130506;23;20507;-79
2024/04/02 07:25:13;;;;;;;1999.90;999.90;;;13.80;88.10;;;;;;6132954;23;20187;-79
2024/04/02 07:27:40;;;;;;;1999.90;999.90;;;14.00;88.10;;;;;;6130921;23;20475;-79
2024/04/02 07:30:07;;;;;;;1999.90;999.90;;;14.10;87.30;;;;;;6131673;23;20210;-79
2024/04/02 07:32:33;;;;;;;1999.90;999.90;;;14.30;86.90;;;;;;6131100;23;20182;-79
2024/04/02 07:34:58;;;;;;;1999.90;999.90;;;14.40;85.70;;;;;;6131911;23;20155;-79
2024/04/02 07:37:26;;;;;;;1999.90;999.90;;;14.40;84.80;;;;;;6131229;23;20185;-78
2024/04/02 07:39:52;;;;;;;1999.90;999.90;;;14.20;84.10;;;;;;6131752;23;20183;-78
2024/04/02 07:42:18;;;;;;;1999.90;999.90;;;14.00;83.90;;;;;;6131158;23;20179;-79
2024/04/02 07:44:44;;;;;;;1999.90;999.90;;;14.00;83.90;;;;;;6132187;23;20214;-79
2024/04/02 07:47:10;;;;;;;1999.90;999.90;;;14.00;83.90;;;;;;6129610;23;20242;-78
2024/04/02 07:49:35;;;;;;;1999.90;999.90;;;14.00;83.80;;;;;;6132549;23;20183;-78
2024/04/02 07:52:01;;;;;;;1999.90;999.90;;;13.90;84.00;;;;;;6129949;23;20198;-79
2024/04/02 07:54:26;;;;;;;1999.90;999.90;;;13.80;83.70;;;;;;6131485;23;20183;-78
2024/04/02 07:56:55;;;;;;;1999.90;999.90;;;13.80;83.70;;;;;;6129061;23;20163;-78
2024/04/02 07:59:21;;;;;;;1999.90;999.90;;;13.70;83.90;;;;;;6129188;23;20155;-78
2024/04/02 08:01:47;;;;;;;1999.90;999.90;;;13.60;84.20;;;;;;6131217;23;20186;-79
2024/04/02 08:04:13;;;;;;;1999.90;999.90;;;13.60;84.10;;;;;;6131428;23;20159;-79
2024/04/02 08:06:39;;;;;;;1999.90;999.90;;;13.50;84.30;;;;;;6130529;23;20162;-78
2024/04/02 08:09:05;;;;;;;1999.90;999.90;;;13.50;84.40;;;;;;6129676;23;20159;-78
2024/04/02 08:11:31;;;;;;;1999.90;999.90;;;13.50;84.40;;;;;;6131028;23;20270;-78
2024/04/02 08:13:56;;;;;;;1999.90;999.90;;;13.60;84.60;;;;;;6161099;23;20165;-79
2024/04/02 08:16:24;;;;;;;1999.90;999.90;;;13.70;84.60;;;;;;6133774;23;20208;-79
2024/04/02 08:18:49;;;;;;;1999.90;999.90;;;13.70;84.30;;;;;;6160272;23;20146;-79
2024/04/02 08:21:15;;;;;;;1999.90;999.90;;;13.70;83.80;;;;;;6160748;23;20221;-78
2024/04/02 08:23:41;;;;;;;1999.90;999.90;;;13.70;83.60;;;;;;6134225;23;20166;-78
2024/04/02 08:26:06;;;;;;;1999.90;999.90;;;13.50;83.50;;;;;;6132690;23;20185;-78
2024/04/02 08:28:33;;;;;;;1999.90;999.90;;;13.50;83.90;;;;;;6160144;23;20151;-79
2024/04/02 08:30:58;;;;;;;1999.90;999.90;;;13.60;84.20;;;;;;6133648;23;20523;-79
2024/04/02 08:33:26;;;;;;;1999.90;999.90;;;13.60;84.10;;;;;;6133528;23;20169;-79
2024/04/02 08:35:52;;;;;;;1999.90;999.90;;;13.70;83.90;;;;;;6133204;23;20599;-78
2024/04/02 08:38:18;;;;;;;1999.90;999.90;;;13.70;83.30;;;;;;6131561;23;20517;-79
2024/04/02 08:40:51;;;;;;;1999.90;999.90;;;13.90;83.60;;;;;;6149308;23;20173;-79
2024/04/02 08:43:17;;;;;;;1999.90;999.90;;;14.00;83.10;;;;;;6182235;23;20150;-79
2024/04/02 08:45:46;;;;;;;1999.90;999.90;;;14.10;83.30;;;;;;6157646;23;20153;-78
2024/04/02 08:48:12;;;;;;;1999.90;999.90;;;14.50;82.80;;;;;;6181893;23;20158;-79
2024/04/02 08:50:38;;;;;;;1999.90;999.90;;;14.90;82.50;;;;;;6136803;23;20198;-79
2024/04/02 08:53:05;;;;;;;1999.90;999.90;;;15.10;81.20;;;;;;6162312;23;20232;-79
2024/04/02 08:55:32;;;;;;;1999.90;999.90;;;15.00;79.90;;;;;;6136580;23;20607;-79
2024/04/02 08:57:59;;;;;;;1999.90;999.90;;;15.00;80.20;;;;;;6135889;23;20183;-78
2024/04/02 09:00:26;;;;;;;1999.90;999.90;;;15.10;80.30;;;;;;6137014;23;20193;-78
2024/04/02 09:02:55;;;;;;;1999.90;999.90;;;15.10;79.70;;;;;;6163164;23;20174;-79
2024/04/02 09:05:21;;;;;;;1999.90;999.90;;;15.00;79.60;;;;;;6162458;23;20150;-79
2024/04/02 09:07:47;;;;;;;1999.90;999.90;;;15.10;79.70;;;;;;6162020;23;20162;-78
2024/04/02 09:10:12;;;;;;;1999.90;999.90;;;15.00;79.10;;;;;;6136786;23;20210;-79
2024/04/02 09:12:38;;;;;;;1999.90;999.90;;;14.90;79.40;;;;;;6162826;23;20243;-79
2024/04/02 09:15:05;;;;;;;1999.90;999.90;;;14.90;79.80;;;;;;6136160;23;20163;-79
2024/04/02 09:17:31;;;;;;;1999.90;999.90;;;14.70;79.00;;;;;;6161710;23;20144;-79
2024/04/02 09:19:56;;;;;;;1999.90;999.90;;;14.80;79.70;;;;;;6136547;23;20162;-79
2024/04/02 09:22:23;;;;;;;1999.90;999.90;;;14.80;79.60;;;;;;6162941;23;20167;-79
2024/04/02 09:24:49;;;;;;;1999.90;999.90;;;14.70;79.20;;;;;;6136768;23;20591;-79
2024/04/02 09:27:15;;;;;;;1999.90;999.90;;;14.60;79.60;;;;;;6135309;23;20165;-79
2024/04/02 09:29:41;;;;;;;1999.90;999.90;;;14.50;80.00;;;;;;6162848;23;20177;-79
2024/04/02 09:32:07;;;;;;;1999.90;999.90;;;14.40;80.30;;;;;;6135440;23;20186;-78
2024/04/02 09:34:34;;;;;;;1999.90;999.90;;;14.40;80.80;;;;;;6161229;23;20181;-78
2024/04/02 09:37:03;;;;;;;1999.90;999.90;;;14.50;81.30;;;;;;6134381;23;20160;-79
2024/04/02 09:39:31;;;;;;;1999.90;999.90;;;14.60;81.60;;;;;;6135034;23;20235;-80
2024/04/02 09:41:58;;;;;;;1999.90;999.90;;;14.70;81.70;;;;;;6162090;23;20250;-79
2024/04/02 09:44:26;;;;;;;1999.90;999.90;;;14.80;81.60;;;;;;6163660;23;20225;-80
2024/04/02 09:46:54;;;;;;;1999.90;999.90;;;15.10;83.00;;;;;;6137445;23;20162;-79
2024/04/02 09:49:21;;;;;;;1999.90;999.90;;;15.50;81.80;;;;;;6137996;23;20155;-80
2024/04/02 09:51:53;;;;;;;1999.90;999.90;;;15.80;80.70;;;;;;6139233;23;20198;-79
2024/04/02 09:54:21;;;;;;;1999.90;999.90;;;16.00;79.20;;;;;;6138157;23;20146;-79
2024/04/02 09:56:49;;;;;;;1999.90;999.90;;;15.90;78.50;;;;;;6138205;23;20155;-80
2024/04/02 09:59:15;;;;;;;1999.90;999.90;;;15.80;78.40;;;;;;6138183;23;20269;-79
2024/04/02 10:01:43;;;;;;;1999.90;999.90;;;15.70;78.20;;;;;;6137888;23;20629;-80
2024/04/02 10:04:11;;;;;;;1999.90;999.90;;;15.50;78.00;;;;;;6138350;23;20164;-79
2024/04/02 10:06:37;;;;;;;1999.90;999.90;;;15.50;77.90;;;;;;6137362;23;20163;-79
2024/04/02 10:09:07;;;;;;;1999.90;999.90;;;15.60;77.80;;;;;;6163223;23;20160;-79
2024/04/02 10:11:39;;;;;;;1999.90;999.90;;;15.90;77.20;;;;;;6131069;23;20255;-79
2024/04/02 10:14:10;;;;;;;1999.90;999.90;;;16.20;77.50;;;;;;6158469;23;20149;-79
2024/04/02 10:16:47;;;;;;;1999.90;999.90;;;16.70;77.10;;;;;;6131336;23;20152;-80
2024/04/02 10:19:28;;;;;;;1999.90;999.90;;;16.80;76.00;;;;;;6158303;23;20143;-79
2024/04/02 10:21:54;;;;;;;1999.90;999.90;;;16.50;76.40;;;;;;6131362;23;20184;-79
2024/04/02 10:24:19;;;;;;;1999.90;999.90;;;16.10;77.20;;;;;;6158064;23;20175;-79
2024/04/02 10:26:53;;;;;;;1999.90;999.90;;;15.90;79.20;;;;;;6130566;23;20160;-79
2024/04/02 10:29:31;;;;;;;1999.90;999.90;;;15.60;78.70;;;;;;6157997;23;20740;-79
2024/04/02 10:31:57;;;;;;;1999.90;999.90;;;15.50;79.70;;;;;;6131362;23;20202;-80
2024/04/02 10:34:24;;;;;;;1999.90;999.90;;;15.60;80.00;;;;;;6131767;23;20159;-79
2024/04/02 10:36:51;;;;;;;1999.90;999.90;;;16.10;80.00;;;;;;6157910;23;20491;-80
2024/04/02 10:39:17;;;;;;;1999.90;999.90;;;16.90;79.20;;;;;;6159030;23;20149;-79
2024/04/02 10:41:46;;;;;;;1999.90;999.90;;;17.40;77.40;;;;;;6132373;23;20183;-80
2024/04/02 10:44:12;;;;;;;1999.90;999.90;;;17.70;76.50;;;;;;6159028;23;20176;-80
2024/04/02 10:46:39;;;;;;;1999.90;999.90;;;18.20;75.60;;;;;;6157387;23;20180;-80
2024/04/02 10:49:05;;;;;;;1999.90;999.90;;;18.70;73.50;;;;;;6132117;23;20248;-80
2024/04/02 10:51:32;;;;;;;1999.90;999.90;;;19.10;72.10;;;;;;6159187;23;20185;-80
2024/04/02 10:53:59;;;;;;;1999.90;999.90;;;19.40;70.10;;;;;;6158923;23;20174;-80
2024/04/02 10:56:26;;;;;;;1999.90;999.90;;;19.60;69.80;;;;;;6132334;23;20163;-80
2024/04/02 10:58:54;;;;;;;1999.90;999.90;;;19.50;69.30;;;;;;6132920;23;20607;-80
2024/04/02 11:01:21;;;;;;;1999.90;999.90;;;19.20;69.00;;;;;;6159880;23;20171;-80
2024/04/02 11:03:54;;;;;;;1999.90;999.90;;;18.70;69.90;;;;;;6132595;23;20158;-80
2024/04/02 11:06:21;;;;;;;1999.90;999.90;;;18.30;70.60;;;;;;6131790;23;20241;-80
2024/04/02 11:08:49;;;;;;;1999.90;999.90;;;17.80;70.80;;;;;;6133037;23;20180;-80
2024/04/02 11:11:22;;;;;;;1999.90;999.90;;;17.30;71.30;;;;;;6133731;23;20220;-80
2024/04/02 11:13:51;;;;;;;1999.90;999.90;;;16.70;72.40;;;;;;6127817;23;20175;-79
2024/04/02 11:16:17;;;;;;;684.70;338.77;;;16.40;73.70;;;;;;6127991;23;20158;-80
2024/04/02 11:18:44;;;;;;;1999.90;999.90;;;16.20;74.50;;;;;;6128778;23;20159;-79
2024/04/02 11:21:21;;;;;;;1999.90;999.90;;;16.10;74.90;;;;;;6130480;23;20235;-80
2024/04/02 11:26:31;;;;;;;1999.90;999.90;;;16.10;75.30;;;;;;6128149;23;20208;-79
2024/04/02 11:29:07;;;;;;;1999.90;999.90;;;16.00;75.10;;;;;;6127669;23;20186;-79
2024/04/02 11:31:33;;;;;;;1999.90;999.90;;;15.80;75.30;;;;;;6126744;23;20782;-79
2024/04/02 11:34:02;;;;;;;1999.90;999.90;;;15.70;75.80;;;;;;6127491;23;20488;-79
2024/04/02 11:36:29;;;;;;;1999.90;999.90;;;15.50;76.20;;;;;;6126182;23;20177;-79
2024/04/02 11:38:54;;;;;;;1999.90;999.90;;;15.30;76.60;;;;;;6127426;23;20215;-79
2024/04/02 11:41:20;;;;;;;1999.90;999.90;;;15.30;77.00;;;;;;6129080;23;20648;-80
2024/04/02 11:43:46;;;;;;;1999.90;999.90;;;15.10;76.70;;;;;;6129338;23;20164;-79
2024/04/02 11:46:12;;;;;;;1999.90;999.90;;;15.10;76.90;;;;;;6127871;23;20207;-79
2024/04/02 11:48:38;;;;;;;1999.90;999.90;;;15.10;77.00;;;;;;6128902;23;20186;-79
2024/04/02 11:51:04;;;;;;;1999.90;999.90;;;15.10;77.20;;;;;;6129584;23;20623;-79
2024/04/02 11:53:30;;;;;;;1999.90;999.90;;;15.20;76.40;;;;;;6131380;23;20543;-80
2024/04/02 11:55:56;;;;;;;1999.90;999.90;;;15.10;76.30;;;;;;6130918;23;20155;-79
2024/04/02 12:01:06;;;;;;;1999.90;999.90;;;15.10;76.30;;;;;;6130754;23;20187;-80